createdAt,value
2018-04-07T00:01:37.709Z,22.40
2018-04-07T00:04:04.688Z,22.40
2018-04-07T00:06:31.712Z,22.40
2018-04-07T00:08:58.702Z,22.40
2018-04-07T00:11:26.506Z,22.40
2018-04-07T00:13:53.514Z,22.40
2018-04-07T00:16:20.501Z,22.40
2018-04-07T00:18:47.511Z,22.40
2018-04-07T00:21:15.289Z,22.40
2018-04-07T00:23:42.277Z,22.40
2018-04-07T00:26:09.287Z,22.40
2018-04-07T00:28:36.268Z,22.40
2018-04-07T00:31:03.273Z,22.30
2018-04-07T00:33:30.280Z,22.40
2018-04-07T00:35:57.291Z,22.40
2018-04-07T00:38:24.282Z,22.30
2018-04-07T00:40:51.286Z,22.40
2018-04-07T00:43:18.334Z,22.40
2018-04-07T00:45:45.326Z,22.40
2018-04-07T00:48:12.333Z,22.30
2018-04-07T00:50:39.331Z,22.40
2018-04-07T00:53:06.509Z,22.30
2018-04-07T00:55:33.521Z,22.30
2018-04-07T00:58:01.282Z,22.30
2018-04-07T01:00:29.066Z,22.30
2018-04-07T01:02:56.152Z,22.30
2018-04-07T01:05:23.176Z,22.40
2018-04-07T01:07:50.189Z,22.40
2018-04-07T01:10:17.193Z,22.40
2018-04-07T01:12:44.322Z,22.30
2018-04-07T01:15:11.330Z,22.30
2018-04-07T01:17:38.337Z,22.30
2018-04-07T01:20:05.346Z,22.40
2018-04-07T01:22:33.133Z,22.40
2018-04-07T01:25:00.130Z,22.30
2018-04-07T01:27:27.174Z,22.30
2018-04-07T01:29:54.165Z,22.40
2018-04-07T01:32:21.319Z,22.30
2018-04-07T01:34:48.327Z,22.30
2018-04-07T01:37:16.096Z,22.30
2018-04-07T01:39:43.087Z,22.30
2018-04-07T01:42:10.124Z,22.40
2018-04-07T01:44:37.122Z,22.40
2018-04-07T01:47:05.615Z,22.30
2018-04-07T01:49:32.633Z,22.30
2018-04-07T01:51:59.752Z,22.30
2018-04-07T01:54:26.743Z,22.40
2018-04-07T01:56:53.769Z,22.40
2018-04-07T01:59:20.757Z,22.30
2018-04-07T02:01:48.555Z,22.40
2018-04-07T02:04:15.576Z,22.30
2018-04-07T02:06:42.582Z,22.30
2018-04-07T02:09:09.569Z,22.40
2018-04-07T02:11:37.355Z,22.30
2018-04-07T02:14:04.387Z,22.30
2018-04-07T02:16:31.380Z,22.30
2018-04-07T02:18:58.371Z,22.30
2018-04-07T02:21:26.183Z,22.30
2018-04-07T02:23:53.174Z,22.30
2018-04-07T02:26:20.166Z,22.30
2018-04-07T02:28:47.158Z,22.30
2018-04-07T02:31:14.350Z,22.30
2018-04-07T02:33:41.379Z,22.30
2018-04-07T02:36:08.373Z,22.30
2018-04-07T02:38:35.379Z,22.30
2018-04-07T02:41:03.133Z,22.30
2018-04-07T02:43:30.152Z,22.30
2018-04-07T02:45:57.153Z,22.30
2018-04-07T02:48:24.166Z,22.30
2018-04-07T02:50:51.961Z,22.30
2018-04-07T02:53:19.016Z,22.30
2018-04-07T02:55:46.030Z,22.30
2018-04-07T02:58:13.032Z,22.30
2018-04-07T03:00:40.026Z,22.30
2018-04-07T03:03:07.818Z,22.30
2018-04-07T03:05:34.824Z,22.30
2018-04-07T03:08:01.839Z,22.30
2018-04-07T03:10:28.841Z,22.30
2018-04-07T03:12:56.632Z,22.30
2018-04-07T03:15:23.632Z,22.30
2018-04-07T03:17:50.634Z,22.30
2018-04-07T03:20:17.645Z,22.30
2018-04-07T03:22:45.460Z,22.30
2018-04-07T03:25:12.447Z,22.30
2018-04-07T03:27:39.711Z,22.30
2018-04-07T03:30:06.975Z,22.30
2018-04-07T03:32:34.025Z,22.20
2018-04-07T03:35:01.029Z,22.30
2018-04-07T03:37:28.023Z,22.20
2018-04-07T03:39:54.999Z,22.30
2018-04-07T03:42:22.047Z,22.20
2018-04-07T03:44:49.033Z,22.30
2018-04-07T03:47:17.839Z,22.20
2018-04-07T03:49:45.616Z,22.20
2018-04-07T03:52:12.686Z,22.20
2018-04-07T03:54:39.673Z,22.20
2018-04-07T03:57:06.673Z,22.20
2018-04-07T03:59:33.665Z,22.20
2018-04-07T04:02:01.471Z,22.20
2018-04-07T04:04:28.474Z,22.20
2018-04-07T04:06:55.492Z,22.20
2018-04-07T04:09:22.492Z,22.20
2018-04-07T04:11:49.662Z,22.20
2018-04-07T04:14:16.664Z,22.20
2018-04-07T04:16:45.172Z,22.20
2018-04-07T04:19:12.159Z,22.20
2018-04-07T04:21:39.302Z,22.20
2018-04-07T04:24:06.289Z,22.20
2018-04-07T04:26:33.303Z,22.20
2018-04-07T04:29:00.298Z,22.20
2018-04-07T04:31:28.228Z,22.20
2018-04-07T04:33:55.211Z,22.20
2018-04-07T04:36:23.197Z,22.20
2018-04-07T04:38:50.200Z,22.20
2018-04-07T04:41:17.311Z,22.20
2018-04-07T04:43:45.093Z,22.10
2018-04-07T04:46:12.118Z,22.20
2018-04-07T04:48:39.110Z,22.20
2018-04-07T04:51:06.111Z,22.20
2018-04-07T04:53:33.113Z,22.10
2018-04-07T04:56:00.167Z,22.20
2018-04-07T04:58:27.925Z,22.20
2018-04-07T05:00:54.916Z,22.10
2018-04-07T05:03:21.936Z,22.10
2018-04-07T05:05:48.937Z,22.20
2018-04-07T05:08:15.938Z,22.20
2018-04-07T05:10:42.945Z,22.20
2018-04-07T05:13:10.204Z,22.20
2018-04-07T05:15:37.384Z,22.20
2018-04-07T05:18:04.392Z,22.20
2018-04-07T05:20:31.397Z,22.20
2018-04-07T05:22:58.560Z,22.20
2018-04-07T05:25:25.583Z,22.20
2018-04-07T05:27:52.615Z,22.20
2018-04-07T05:30:19.636Z,22.30
2018-04-07T05:32:48.169Z,22.30
2018-04-07T05:35:15.169Z,22.30
2018-04-07T05:37:42.477Z,22.30
2018-04-07T05:40:09.508Z,22.40
2018-04-07T05:42:36.685Z,22.40
2018-04-07T05:45:04.097Z,22.40
2018-04-07T05:47:31.201Z,22.40
2018-04-07T05:49:58.197Z,22.40
2018-04-07T05:52:27.001Z,22.40
2018-04-07T05:54:54.044Z,22.40
2018-04-07T05:57:21.124Z,22.40
2018-04-07T05:59:48.320Z,22.40
2018-04-07T06:02:16.112Z,22.50
2018-04-07T06:04:44.082Z,22.60
2018-04-07T06:07:11.102Z,22.60
2018-04-07T06:09:38.088Z,22.60
2018-04-07T06:12:05.253Z,22.60
2018-04-07T06:14:32.983Z,22.60
2018-04-07T06:17:00.733Z,22.70
2018-04-07T06:19:27.737Z,22.70
2018-04-07T06:21:54.866Z,22.70
2018-04-07T06:24:21.855Z,22.70
2018-04-07T06:26:48.858Z,22.80
2018-04-07T06:29:15.861Z,22.80
2018-04-07T06:31:43.073Z,22.80
2018-04-07T06:34:10.073Z,22.80
2018-04-07T06:36:37.065Z,22.80
2018-04-07T06:39:04.064Z,22.80
2018-04-07T06:41:32.010Z,22.80
2018-04-07T06:44:00.512Z,22.80
2018-04-07T06:46:27.535Z,22.80
2018-04-07T06:48:54.522Z,22.80
2018-04-07T06:51:21.718Z,22.90
2018-04-07T06:53:48.711Z,22.90
2018-04-07T06:56:15.698Z,22.90
2018-04-07T06:58:42.698Z,22.90
2018-04-07T07:01:10.464Z,22.90
2018-04-07T07:03:37.493Z,22.90
2018-04-07T07:06:04.489Z,22.90
2018-04-07T07:08:31.517Z,22.90
2018-04-07T07:10:59.492Z,22.90
2018-04-07T07:13:26.492Z,22.90
2018-04-07T07:15:53.505Z,23.00
2018-04-07T07:18:20.524Z,23.00
2018-04-07T07:20:47.520Z,23.00
2018-04-07T07:23:14.724Z,23.00
2018-04-07T07:25:41.747Z,23.00
2018-04-07T07:28:10.247Z,23.10
2018-04-07T07:30:37.241Z,23.10
2018-04-07T07:33:04.373Z,23.10
2018-04-07T07:35:31.424Z,23.10
2018-04-07T07:37:58.412Z,23.10
2018-04-07T07:40:26.318Z,23.10
2018-04-07T07:42:53.369Z,23.10
2018-04-07T07:45:20.371Z,23.10
2018-04-07T07:47:47.364Z,23.10
2018-04-07T07:50:14.356Z,23.10
2018-04-07T07:52:41.572Z,23.10
2018-04-07T07:55:08.581Z,23.10
2018-04-07T07:57:35.569Z,23.20
2018-04-07T08:00:02.592Z,23.10
2018-04-07T08:02:29.757Z,22.80
2018-04-07T08:04:56.764Z,22.70
2018-04-07T08:07:23.777Z,22.60
2018-04-07T08:09:50.762Z,22.50
2018-04-07T08:12:18.592Z,22.50
2018-04-07T08:14:45.591Z,22.50
2018-04-07T08:17:13.328Z,22.50
2018-04-07T08:19:41.935Z,22.50
2018-04-07T08:22:09.825Z,22.50
2018-04-07T08:24:36.835Z,22.50
2018-04-07T08:27:03.832Z,22.60
2018-04-07T08:29:30.847Z,22.60
2018-04-07T08:31:58.011Z,22.60
2018-04-07T08:34:25.017Z,22.50
2018-04-07T08:36:52.029Z,22.50
2018-04-07T08:39:19.097Z,22.50
2018-04-07T08:41:46.221Z,22.50
2018-04-07T08:44:13.225Z,22.50
2018-04-07T08:46:40.219Z,22.50
2018-04-07T08:49:07.256Z,22.50
2018-04-07T08:51:34.445Z,22.50
2018-04-07T08:54:01.429Z,22.70
2018-04-07T08:56:28.430Z,22.70
2018-04-07T08:58:55.434Z,22.70
2018-04-07T09:01:22.589Z,22.80
2018-04-07T09:03:49.592Z,22.80
2018-04-07T09:06:16.600Z,22.90
2018-04-07T09:08:43.603Z,22.90
2018-04-07T09:11:11.405Z,22.90
2018-04-07T09:13:38.411Z,22.90
2018-04-07T09:16:05.401Z,22.90
2018-04-07T09:18:32.422Z,22.90
2018-04-07T09:20:59.419Z,22.90
2018-04-07T09:23:26.416Z,22.90
2018-04-07T09:25:53.434Z,22.90
2018-04-07T09:28:20.437Z,22.90
2018-04-07T09:30:47.448Z,23.00
2018-04-07T09:33:14.647Z,22.90
2018-04-07T09:35:41.635Z,22.90
2018-04-07T09:38:08.670Z,23.00
2018-04-07T09:40:35.672Z,23.00
2018-04-07T09:43:02.822Z,23.00
2018-04-07T09:45:29.793Z,23.10
2018-04-07T09:47:56.808Z,23.10
2018-04-07T09:50:23.810Z,23.20
2018-04-07T09:52:51.606Z,23.20
2018-04-07T09:55:18.598Z,23.20
2018-04-07T09:57:45.603Z,23.20
2018-04-07T10:00:12.592Z,23.30
2018-04-07T10:02:39.792Z,23.20
2018-04-07T10:05:06.805Z,23.20
2018-04-07T10:07:33.848Z,23.20
2018-04-07T10:10:00.839Z,23.20
2018-04-07T10:12:28.002Z,23.20
2018-04-07T10:14:54.984Z,23.20
2018-04-07T10:17:22.688Z,23.20
2018-04-07T10:19:49.690Z,23.20
2018-04-07T10:22:16.802Z,23.30
2018-04-07T10:24:43.791Z,23.40
2018-04-07T10:27:10.810Z,23.40
2018-04-07T10:29:37.814Z,23.40
2018-04-07T10:32:05.608Z,23.40
2018-04-07T10:34:32.584Z,23.40
2018-04-07T10:36:59.605Z,23.40
2018-04-07T10:39:26.609Z,23.40
2018-04-07T10:41:53.802Z,23.50
2018-04-07T10:44:20.796Z,23.50
2018-04-07T10:46:47.810Z,23.50
2018-04-07T10:49:14.813Z,23.50
2018-04-07T10:51:42.589Z,23.50
2018-04-07T10:54:09.658Z,23.50
2018-04-07T10:56:36.641Z,23.50
2018-04-07T10:59:03.646Z,23.50
2018-04-07T11:01:30.984Z,23.50
2018-04-07T11:03:58.080Z,23.50
2018-04-07T11:06:25.075Z,23.50
2018-04-07T11:08:52.068Z,23.50
2018-04-07T11:11:19.225Z,23.50
2018-04-07T11:13:46.229Z,23.50
2018-04-07T11:16:13.238Z,23.50
2018-04-07T11:18:40.236Z,23.50
2018-04-07T11:21:07.247Z,23.50
2018-04-07T11:23:35.011Z,23.40
2018-04-07T11:26:02.041Z,23.40
2018-04-07T11:28:30.574Z,23.50
2018-04-07T11:30:57.564Z,23.40
2018-04-07T11:33:24.557Z,23.40
2018-04-07T11:35:51.556Z,23.50
2018-04-07T11:38:18.545Z,23.50
2018-04-07T11:40:45.557Z,23.40
2018-04-07T11:43:12.645Z,23.40
2018-04-07T11:45:39.643Z,23.40
2018-04-07T11:48:08.142Z,23.40
2018-04-07T11:50:35.148Z,23.40
2018-04-07T11:53:02.283Z,23.40
2018-04-07T11:55:29.274Z,23.40
2018-04-07T11:57:56.285Z,23.40
2018-04-07T12:00:23.278Z,23.50
2018-04-07T12:02:51.080Z,23.40
2018-04-07T12:05:18.115Z,23.40
2018-04-07T12:07:45.109Z,23.40
2018-04-07T12:10:12.121Z,23.40
2018-04-07T12:12:39.256Z,23.40
2018-04-07T12:15:06.309Z,23.40
2018-04-07T12:17:34.045Z,23.50
2018-04-07T12:20:01.104Z,23.40
2018-04-07T12:22:29.092Z,23.40
2018-04-07T12:24:56.136Z,23.40
2018-04-07T12:27:23.945Z,23.40
2018-04-07T12:29:51.023Z,23.40
2018-04-07T12:32:19.412Z,23.40
2018-04-07T12:34:47.419Z,23.40
2018-04-07T12:37:14.647Z,23.30
2018-04-07T12:39:41.681Z,23.40
2018-04-07T12:42:08.805Z,23.30
2018-04-07T12:44:35.919Z,23.30
2018-04-07T12:47:03.005Z,23.30
2018-04-07T12:49:31.358Z,23.30
2018-04-07T12:51:59.206Z,23.30
2018-04-07T12:54:26.328Z,23.30
2018-04-07T12:56:53.483Z,23.30
2018-04-07T12:59:21.336Z,23.30
2018-04-07T13:01:49.021Z,23.30
2018-04-07T13:04:16.142Z,23.30
2018-04-07T13:06:43.979Z,23.30
2018-04-07T13:09:11.118Z,23.20
2018-04-07T13:11:38.293Z,23.20
2018-04-07T13:14:05.395Z,23.30
2018-04-07T13:16:33.182Z,23.20
2018-04-07T13:19:00.308Z,23.20
2018-04-07T13:21:27.669Z,23.20
2018-04-07T13:23:54.901Z,23.30
2018-04-07T13:26:22.296Z,23.20
2018-04-07T13:28:49.576Z,23.20
2018-04-07T13:31:16.713Z,23.20
2018-04-07T13:33:43.940Z,23.20
2018-04-07T13:36:11.004Z,23.30
2018-04-07T13:38:38.053Z,23.20
2018-04-07T13:41:05.268Z,23.30
2018-04-07T13:43:32.396Z,23.30
2018-04-07T13:45:59.412Z,23.20
2018-04-07T13:48:27.424Z,23.30
2018-04-07T13:50:54.558Z,23.20
2018-04-07T13:53:21.706Z,23.30
2018-04-07T13:55:48.690Z,23.30
2018-04-07T13:58:17.242Z,23.30
2018-04-07T14:00:44.319Z,23.30
2018-04-07T14:03:11.554Z,23.30
2018-04-07T14:05:38.895Z,23.20
2018-04-07T14:08:06.797Z,23.20
2018-04-07T14:10:33.802Z,23.20
2018-04-07T14:13:01.618Z,23.20
2018-04-07T14:15:28.627Z,23.20
2018-04-07T14:17:55.619Z,23.30
2018-04-07T14:20:22.637Z,23.20
2018-04-07T14:22:49.797Z,23.20
2018-04-07T14:25:16.789Z,23.30
2018-04-07T14:27:43.802Z,23.20
2018-04-07T14:30:10.790Z,23.30
2018-04-07T14:32:37.978Z,23.20
2018-04-07T14:35:04.977Z,23.20
2018-04-07T14:37:31.982Z,23.20
2018-04-07T14:39:58.975Z,23.20
2018-04-07T14:42:25.982Z,23.20
2018-04-07T14:44:52.970Z,23.20
2018-04-07T14:47:21.055Z,23.20
2018-04-07T14:49:48.038Z,23.20
2018-04-07T14:52:15.387Z,23.20
2018-04-07T14:54:42.389Z,23.20
2018-04-07T14:57:09.395Z,23.20
2018-04-07T14:59:36.381Z,23.20
2018-04-07T15:02:03.583Z,23.20
2018-04-07T15:04:30.574Z,23.20
2018-04-07T15:06:57.589Z,23.10
2018-04-07T15:09:24.592Z,23.20
2018-04-07T15:11:52.386Z,23.10
2018-04-07T15:14:19.386Z,23.10
2018-04-07T15:16:46.373Z,23.20
2018-04-07T15:19:13.382Z,23.10
2018-04-07T15:21:40.587Z,23.20
2018-04-07T15:24:07.579Z,23.10
2018-04-07T15:26:34.566Z,23.20
2018-04-07T15:29:01.583Z,23.10
2018-04-07T15:31:29.376Z,23.10
2018-04-07T15:33:56.393Z,23.10
2018-04-07T15:36:23.384Z,23.10
2018-04-07T15:38:50.396Z,23.10
2018-04-07T15:41:18.188Z,23.10
2018-04-07T15:43:45.179Z,23.10
2018-04-07T15:46:12.180Z,23.10
2018-04-07T15:48:39.160Z,23.10
2018-04-07T15:51:06.166Z,23.10
2018-04-07T15:53:33.205Z,23.10
2018-04-07T15:56:00.165Z,23.10
2018-04-07T15:58:27.163Z,23.10
2018-04-07T16:00:54.150Z,23.10
2018-04-07T16:03:21.141Z,23.10
2018-04-07T16:05:48.173Z,23.10
2018-04-07T16:08:15.170Z,23.10
2018-04-07T16:10:42.936Z,23.10
2018-04-07T16:13:10.008Z,23.10
2018-04-07T16:15:37.012Z,23.10
2018-04-07T16:18:04.018Z,23.10
2018-04-07T16:20:31.010Z,23.10
2018-04-07T16:22:58.226Z,23.10
2018-04-07T16:25:25.213Z,23.10
2018-04-07T16:27:52.226Z,23.10
2018-04-07T16:30:19.252Z,23.10
2018-04-07T16:32:46.538Z,23.10
2018-04-07T16:35:13.533Z,23.10
2018-04-07T16:37:41.297Z,23.10
2018-04-07T16:40:09.363Z,23.10
2018-04-07T16:42:36.465Z,23.10
2018-04-07T16:45:03.478Z,23.10
2018-04-07T16:47:31.119Z,23.00
2018-04-07T16:49:58.100Z,23.00
2018-04-07T16:52:25.319Z,23.00
2018-04-07T16:54:52.245Z,23.10
2018-04-07T16:57:19.229Z,23.10
2018-04-07T16:59:46.267Z,23.00
2018-04-07T17:02:13.421Z,23.00
2018-04-07T17:04:40.409Z,23.00
2018-04-07T17:07:07.432Z,23.00
2018-04-07T17:09:34.411Z,23.00
2018-04-07T17:12:01.619Z,23.00
2018-04-07T17:14:28.611Z,23.00
2018-04-07T17:16:55.601Z,23.00
2018-04-07T17:19:22.583Z,23.00
2018-04-07T17:21:49.584Z,23.00
2018-04-07T17:24:16.630Z,23.00
2018-04-07T17:26:43.652Z,23.00
2018-04-07T17:29:10.640Z,23.00
2018-04-07T17:31:37.803Z,23.00
2018-04-07T17:34:04.805Z,23.00
2018-04-07T17:36:31.806Z,23.00
2018-04-07T17:38:58.807Z,23.00
2018-04-07T17:41:26.596Z,23.00
2018-04-07T17:43:53.589Z,23.00
2018-04-07T17:46:20.596Z,23.00
2018-04-07T17:48:47.599Z,23.00
2018-04-07T17:51:15.398Z,23.00
2018-04-07T17:53:43.626Z,23.00
2018-04-07T17:56:10.619Z,23.00
2018-04-07T17:58:37.609Z,23.00
2018-04-07T18:01:04.608Z,23.00
2018-04-07T18:03:31.619Z,23.00
2018-04-07T18:05:58.624Z,23.00
2018-04-07T18:08:25.614Z,23.00
2018-04-07T18:10:53.407Z,23.00
2018-04-07T18:13:20.397Z,23.00
2018-04-07T18:15:47.397Z,23.00
2018-04-07T18:18:14.403Z,23.00
2018-04-07T18:20:41.423Z,23.00
2018-04-07T18:23:08.461Z,23.00
2018-04-07T18:25:35.491Z,23.00
2018-04-07T18:28:02.539Z,22.90
2018-04-07T18:30:29.541Z,22.90
2018-04-07T18:32:56.657Z,22.90
2018-04-07T18:35:23.644Z,22.90
2018-04-07T18:37:50.648Z,22.90
2018-04-07T18:40:17.660Z,22.90
2018-04-07T18:42:45.450Z,22.80
2018-04-07T18:45:12.452Z,22.80
2018-04-07T18:47:39.464Z,22.80
2018-04-07T18:50:06.730Z,22.80
2018-04-07T18:52:33.986Z,22.80
2018-04-07T18:55:01.019Z,22.70
2018-04-07T18:57:28.033Z,22.80
2018-04-07T18:59:55.780Z,22.80
2018-04-07T19:02:23.952Z,22.80
2018-04-07T19:04:51.722Z,22.90
2018-04-07T19:07:18.729Z,22.80
2018-04-07T19:09:45.779Z,22.90
2018-04-07T19:12:12.929Z,22.90
2018-04-07T19:14:39.920Z,22.90
2018-04-07T19:17:06.922Z,22.90
2018-04-07T19:19:33.916Z,22.90
2018-04-07T19:22:01.076Z,22.90
2018-04-07T19:24:28.076Z,22.90
2018-04-07T19:26:55.082Z,22.90
2018-04-07T19:29:22.096Z,23.00
2018-04-07T19:31:50.081Z,23.00
2018-04-07T19:34:17.081Z,22.90
2018-04-07T19:36:44.061Z,23.00
2018-04-07T19:39:11.067Z,23.00
2018-04-07T19:41:38.080Z,23.00
2018-04-07T19:44:05.065Z,23.00
2018-04-07T19:46:32.054Z,23.00
2018-04-07T19:48:59.054Z,23.10
2018-04-07T19:51:26.067Z,23.10
2018-04-07T19:53:53.052Z,23.10
2018-04-07T19:56:21.553Z,23.10
2018-04-07T19:58:48.549Z,23.10
2018-04-07T20:01:15.746Z,23.10
2018-04-07T20:03:42.736Z,23.10
2018-04-07T20:06:09.733Z,23.10
2018-04-07T20:08:36.749Z,23.10
2018-04-07T20:11:03.809Z,23.10
2018-04-07T20:13:30.839Z,23.10
2018-04-07T20:15:57.813Z,23.10
2018-04-07T20:18:24.841Z,23.10
2018-04-07T20:20:51.953Z,23.10
2018-04-07T20:23:18.969Z,23.10
2018-04-07T20:25:46.037Z,23.10
2018-04-07T20:28:13.054Z,23.10
2018-04-07T20:30:40.054Z,23.20
2018-04-07T20:33:07.159Z,23.20
2018-04-07T20:35:34.240Z,23.20
2018-04-07T20:38:01.261Z,23.20
2018-04-07T20:40:29.228Z,23.20
2018-04-07T20:42:56.344Z,23.10
2018-04-07T20:45:24.010Z,23.10
2018-04-07T20:47:51.021Z,23.10
2018-04-07T20:50:18.088Z,23.10
2018-04-07T20:52:45.127Z,23.10
2018-04-07T20:55:12.140Z,23.20
2018-04-07T20:57:39.129Z,23.10
2018-04-07T21:00:07.072Z,23.20
2018-04-07T21:02:34.747Z,23.10
2018-04-07T21:05:01.783Z,23.10
2018-04-07T21:07:28.778Z,23.10
2018-04-07T21:09:55.781Z,23.10
2018-04-07T21:12:22.961Z,23.10
2018-04-07T21:14:49.968Z,23.10
2018-04-07T21:17:16.974Z,23.00
2018-04-07T21:19:45.470Z,23.00
2018-04-07T21:22:13.390Z,23.00
2018-04-07T21:24:40.371Z,23.00
2018-04-07T21:27:07.366Z,23.00
2018-04-07T21:29:34.381Z,23.00
2018-04-07T21:32:02.365Z,23.00
2018-04-07T21:34:29.349Z,22.90
2018-04-07T21:36:56.338Z,22.90
2018-04-07T21:39:23.392Z,22.90
2018-04-07T21:41:50.585Z,22.90
2018-04-07T21:44:17.593Z,22.90
2018-04-07T21:46:45.348Z,22.80
2018-04-07T21:49:12.345Z,22.80
2018-04-07T21:51:39.398Z,22.80
2018-04-07T21:54:06.388Z,22.80
2018-04-07T21:56:36.156Z,22.80
2018-04-07T21:59:03.194Z,22.80
2018-04-07T22:01:30.254Z,22.80
2018-04-07T22:03:57.280Z,22.70
2018-04-07T22:06:24.284Z,22.70
2018-04-07T22:08:51.264Z,22.70
2018-04-07T22:11:18.485Z,22.70
2018-04-07T22:13:45.473Z,22.70
2018-04-07T22:16:12.921Z,22.70
2018-04-07T22:18:39.927Z,22.70
2018-04-07T22:21:06.909Z,22.60
2018-04-07T22:23:33.936Z,22.70
2018-04-07T22:26:00.934Z,22.70
2018-04-07T22:28:27.934Z,22.60
2018-04-07T22:30:54.990Z,22.60
2018-04-07T22:33:21.977Z,22.60
2018-04-07T22:35:48.994Z,22.60
2018-04-07T22:38:16.001Z,22.60
2018-04-07T22:40:43.055Z,22.60
2018-04-07T22:43:10.256Z,22.60
2018-04-07T22:45:37.965Z,22.60
2018-04-07T22:48:04.988Z,22.60
2018-04-07T22:50:32.028Z,22.60
2018-04-07T22:52:59.058Z,22.60
2018-04-07T22:55:26.062Z,22.60
2018-04-07T22:57:53.097Z,22.60
2018-04-07T23:00:21.596Z,22.60
2018-04-07T23:02:48.684Z,22.60
2018-04-07T23:05:15.688Z,22.60
2018-04-07T23:07:42.702Z,22.60
2018-04-07T23:10:09.689Z,22.60
2018-04-07T23:12:37.495Z,22.70
2018-04-07T23:15:04.520Z,22.70
2018-04-07T23:17:31.541Z,22.80
2018-04-07T23:19:58.550Z,22.80
2018-04-07T23:22:25.687Z,22.80
2018-04-07T23:24:52.679Z,22.90
2018-04-07T23:27:21.219Z,22.90
2018-04-07T23:29:48.197Z,22.90
2018-04-07T23:32:15.496Z,22.90
2018-04-07T23:34:42.489Z,22.90
2018-04-07T23:37:09.486Z,22.90
2018-04-07T23:39:36.502Z,22.90
2018-04-07T23:42:03.500Z,22.90
2018-04-07T23:44:30.505Z,22.90
2018-04-07T23:46:57.521Z,22.90
2018-04-07T23:49:24.514Z,22.90
2018-04-07T23:51:51.701Z,22.90
2018-04-07T23:54:18.693Z,22.90
2018-04-07T23:56:45.695Z,22.90
2018-04-07T23:59:12.718Z,22.90
